Hayward, WI

9:43 PM CST on March 03, 2015 (GMT -0600)
Cumberland Municipal | Change Station
CLOSE
Current Station
Airport
Location: Cumberland,
Elevation: 1240 ft
Nearby Weather Stations

Elev 1240 ft 45.51 °N, 91.98 °W | Updated 8 minutes ago

Clear
Clear
10 °F
Feels Like -7 °F
N
16
Wind Variable Wind from WNW
Gusts 22 mph

Today
High -- | Low -- °F
--% Chance of Precip.
Yesterday
High -- | Low -- °F
Precip. -- in
6:41 AM 5:54 PM
Waxing Gibbous, 98% visible
Pressure 29.86 in
Visibility 10.0 miles
Clouds Clear
Windchill -7 °F
Dew Point 1 °F
Humidity 67%
Rainfall 0.06 in
Snow Depth Not available.
UV 0 out of 12
Pollen .10 out of 12
Air Quality Not available.
Flu Activity Not available.
METAR KUBE 040335Z AUTO 29014G19KT 10SM CLR M12/M17 A2986 RMK AO2

More Conditions Fewer Conditions

Pressure 29.86 in
Visibility 10.0 miles
Clouds Clear
Windchill -7 °F
Dew Point 1 °F
Humidity 67%
Rainfall 0.06 in
Snow Depth Not available.
UV 0 out of 12
Pollen .10 out of 12
Air Quality Not available.
Flu Activity Not available.
METAR KUBE 040335Z AUTO 29014G19KT 10SM CLR M12/M17 A2986 RMK AO2

More Conditions Fewer Conditions

10-Day Weather Forecast

Almanac

Astronomy

Mar. 03, 2015 Rise Set
Actual Time
Civil Twilight
Nautical Twilight
Astronomical Twilight
Moon
Length of Visible Light
Length of Day
Tomorrow will be .
, % of the Moon is Illuminated

Today's Extremes

State Highs State Lows

Community

WunderPhotos

Upload Photos

1,802,379 photos uploaded!

WunderBlogs® & News

Nearby

Air Quality

  Air Quality AQ Index Pollutant
Not available.

Snow Depth

Station Depth Elevation

Earthquake Activity

City Distance Mag. Time & Date
Minimum magnitude displayed is 2.5.

Coastal Water Temperatures

Place Temperature

Nearby Weather Stations